Data for 04/21/2008

Time Sea-Level Adjusted Pressure Absolute Pressure Temperature Relative Humidity Dew Point   
(mb) (inHg) (mb) (inHg) (C) (F) (%) (C) (F)
00:05 1014 29.94 843 24.89 -8.1 17.4 79 -11.1 12
00:10 1014 29.94 844 24.92 -8.1 17.4 79 -11 12.1
00:15 1014 29.94 844 24.92 -8.2 17.3 79 -11.1 11.9
00:20 1014 29.94 844 24.92 -8.2 17.3 80 -11.1 12.1
00:25 1014 29.94 844 24.92 -8.1 17.4 80 -10.9 12.4
00:30 1014 29.94 844 24.92 -8 17.7 80 -10.8 12.6
00:35 1014 29.94 844 24.92 -8.2 17.2 82 -10.8 12.6
00:40 1015 29.97 844 24.92 -8.2 17.2 82 -10.7 12.7
00:45 1015 29.97 844 24.92 -8.2 17.3 81 -10.8 12.5
00:50 1015 29.97 844 24.92 -8.2 17.2 80 -11 12.2
00:55 1015 29.97 844 24.92 -8.4 16.9 81 -11.1 12
01:00 1015 29.97 844 24.92 -8.4 16.9 82 -10.9 12.3
01:05 1015 29.97 844 24.92 -8.3 17.1 82 -10.8 12.5
01:10 1015 29.97 844 24.92 -8.4 16.9 83 -10.8 12.6
01:15 1015 29.97 844 24.92 -8.4 16.9 83 -10.8 12.5
01:20 1015 29.97 844 24.92 -8.4 16.9 83 -10.8 12.6
01:25 1015 29.97 844 24.92 -8.4 16.9 82 -10.9 12.4
01:30 1015 29.97 844 24.92 -8.5 16.8 82 -11 12.2
01:35 1015 29.97 844 24.92 -8.6 16.6 82 -11.1 12
01:40 1015 29.97 844 24.92 -8.5 16.6 82 -11.1 11.9
01:45 1015 29.97 844 24.92 -8.7 16.4 81 -11.3 11.6
01:50 1015 29.97 844 24.92 -8.8 16.1 81 -11.4 11.4
01:55 1015 29.97 844 24.92 -8.9 16.1 81 -11.5 11.3
02:00 1015 29.97 844 24.92 -8.8 16.2 81 -11.4 11.4
02:05 1015 29.97 844 24.92 -8.8 16.3 81 -11.4 11.5
02:10 1015 29.97 844 24.92 -8.6 16.4 81 -11.4 11.5
02:15 1015 29.97 844 24.92 -8.7 16.3 81 -11.4 11.4
02:20 1015 29.97 844 24.92 -8.8 16.2 81 -11.5 11.3
02:25 1015 29.97 844 24.92 -8.9 16 81 -11.6 11.2
02:30 1015 29.97 844 24.92 -9 15.9 82 -11.5 11.2
02:35 1015 29.97 844 24.92 -9 15.8 82 -11.5 11.3
02:40 1015 29.97 844 24.92 -9.1 15.7 83 -11.5 11.3
02:45 1015 29.97 844 24.92 -9.2 15.4 83 -11.6 11.2
02:50 1015 29.97 844 24.92 -9.4 15.2 85 -11.5 11.3
02:55 1015 29.97 844 24.92 -9.5 14.9 86 -11.5 11.4
03:00 1015 29.97 844 24.92 -9.7 14.6 87 -11.5 11.4
03:05 1015 29.97 844 24.92 -9.8 14.5 88 -11.4 11.5
03:10 1015 29.97 844 24.92 -9.8 14.3 88 -11.4 11.4
03:15 1015 29.97 844 24.92 -9.9 14.3 89 -11.4 11.6
03:20 1015 29.97 844 24.92 -9.9 14.2 89 -11.4 11.5
03:25 1014 29.94 844 24.92 -9.9 14.2 89 -11.3 11.6
03:30 1014 29.94 844 24.92 -9.9 14.1 89 -11.4 11.5
03:35 1014 29.94 844 24.92 -10.1 13.8 89 -11.6 11.2
03:40 1014 29.94 844 24.92 -10.2 13.6 89 -11.6 11.1
03:45 1014 29.94 844 24.92 -10.2 13.7 89 -11.6 11.1
03:50 1014 29.94 844 24.92 -10.2 13.6 89 -11.6 11.1
03:55 1014 29.94 844 24.92 -10.3 13.4 89 -11.7 10.9
04:00 1014 29.94 844 24.92 -10.4 13.2 90 -11.8 10.7
04:05 1014 29.94 844 24.92 -10.4 13.2 90 -11.8 10.8
04:10 1014 29.94 844 24.92 -10.4 13.3 90 -11.7 10.9
04:15 1014 29.94 844 24.92 -10.4 13.2 90 -11.7 10.9
04:20 1014 29.94 844 24.92 -10.4 13.3 90 -11.7 10.9
04:25 1014 29.94 844 24.92 -10.4 13.3 90 -11.7 11
04:30 1014 29.94 844 24.92 -10.3 13.5 90 -11.6 11.1
04:35 1014 29.94 844 24.92 -10.2 13.6 90 -11.6 11.2
04:40 1014 29.94 844 24.92 -10.2 13.6 90 -11.6 11.2
04:45 1014 29.94 844 24.92 -10.1 13.8 89 -11.5 11.2
04:50 1014 29.94 844 24.92 -10.2 13.7 89 -11.6 11.1
04:55 1014 29.94 844 24.92 -10.2 13.7 89 -11.6 11.1
05:00 1014 29.94 844 24.92 -10.2 13.6 89 -11.7 11
05:05 1014 29.94 844 24.92 -10.3 13.4 89 -11.8 10.8
05:10 1014 29.94 844 24.92 -10.3 13.4 90 -11.7 10.9
05:15 1014 29.94 844 24.92 -10.3 13.5 89 -11.7 11
05:20 1014 29.94 844 24.92 -10.3 13.5 90 -11.7 11
05:25 1014 29.94 844 24.92 -10.3 13.5 90 -11.7 11
05:30 1014 29.94 844 24.92 -10.3 13.5 90 -11.7 11
05:35 1014 29.94 844 24.92 -10.2 13.6 90 -11.6 11.2
05:40 1014 29.94 844 24.92 -10.1 13.9 90 -11.5 11.4
05:45 1014 29.94 844 24.92 -10 14.1 89 -11.4 11.5
05:50 1014 29.94 844 24.92 -9.9 14.3 90 -11.3 11.7
05:55 1014 29.94 844 24.92 -9.7 14.5 89 -11.2 11.8
06:00 1014 29.94 844 24.92 -9.7 14.6 89 -11.2 11.9
06:05 1014 29.94 844 24.92 -9.6 14.7 89 -11.1 12
06:10 1014 29.94 844 24.92 -9.4 15 89 -11 12.3
06:15 1015 29.97 844 24.92 -9.4 15.1 88 -11 12.2
06:20 1015 29.97 844 24.92 -9.4 15.1 88 -11 12.1
06:25 1015 29.97 844 24.92 -9.3 15.3 88 -10.9 12.3
06:30 1015 29.97 844 24.92 -9.2 15.4 88 -10.9 12.4
06:35 1015 29.97 844 24.92 -9 15.7 88 -10.7 12.7
06:40 1015 29.97 844 24.92 -9 15.8 87 -10.8 12.6
06:45 1015 29.97 844 24.92 -9.1 15.6 88 -10.8 12.6
06:50 1015 29.97 844 24.92 -8.8 16.2 87 -10.5 13
06:55 1015 29.97 844 24.92 -8.6 16.6 87 -10.4 13.3
07:00 1015 29.97 844 24.92 -8.6 16.6 87 -10.4 13.3
07:05 1015 29.97 844 24.92 -8.8 16.2 87 -10.6 12.9
07:10 1015 29.97 844 24.92 -9.3 15.3 88 -10.9 12.4
07:15 1015 29.97 844 24.92 -9.3 15.2 89 -10.8 12.6
07:20 1015 29.97 844 24.92 -9.1 15.7 89 -10.6 13
07:25 1015 29.97 844 24.92 -9 15.8 90 -10.4 13.3
07:30 1015 29.97 844 24.92 -8.9 16 89 -10.3 13.4
07:35 1015 29.97 844 24.92 -9.2 15.5 90 -10.5 13.2
07:40 1015 29.97 844 24.92 -8.9 15.9 90 -10.3 13.5
07:45 1015 29.97 844 24.92 -8.7 16.4 90 -10 14
07:50 1015 29.97 844 24.92 -8.6 16.6 89 -10.1 13.9
07:55 1015 29.97 844 24.92 -8.6 16.6 89 -10 13.9
08:00 1015 29.97 844 24.92 -8.1 17.4 89 -9.7 14.6
08:05 1015 29.97 844 24.92 -7.8 18 88 -9.4 15
08:10 1015 29.97 844 24.92 -7.5 18.6 86 -9.4 15.1
08:15 1015 29.97 844 24.92 -7.3 18.9 85 -9.5 15
08:20 1015 29.97 844 24.92 -7.2 19.1 84 -9.4 15.1
08:25 1015 29.97 844 24.92 -7 19.4 83 -9.5 15
08:30 1015 29.97 844 24.92 -7 19.3 83 -9.4 15.1
08:35 1015 29.97 844 24.92 -6.8 19.8 82 -9.3 15.2
08:40 1015 29.97 844 24.92 -6.7 20 82 -9.2 15.4
08:45 1015 29.97 844 24.92 -6.8 19.8 81 -9.6 14.8
08:50 1015 29.97 844 24.92 -6.6 20.1 80 -9.6 14.8
08:55 1015 29.97 844 24.92 -6.3 20.7 78 -9.4 15
09:00 1014 29.94 844 24.92 -5.8 21.5 77 -9.3 15.3
09:05 1014 29.94 844 24.92 -5.4 22.2 74 -9.3 15.3
09:10 1014 29.94 844 24.92 -5 23 72 -9.2 15.4
09:15 1014 29.94 844 24.92 -4.9 23.1 72 -9.2 15.5
09:20 1014 29.94 844 24.92 -5.1 22.9 73 -9.2 15.4
09:25 1014 29.94 844 24.92 -4.6 23.7 72 -8.9 15.9
09:30 1014 29.94 844 24.92 -4.2 24.4 72 -8.6 16.5
09:35 1014 29.94 844 24.92 -3.8 25.1 69 -8.7 16.4
09:40 1014 29.94 844 24.92 -3.9 25 68 -9 15.8
09:45 1014 29.94 844 24.92 -4.1 24.7 69 -9 15.9
09:50 1014 29.94 844 24.92 -3.7 25.3 66 -9.1 15.6
09:55 1014 29.94 844 24.92 -3.8 25.2 65 -9.4 15.1
10:00 1014 29.94 844 24.92 -3.2 26.2 64 -9.2 15.5
10:05 1014 29.94 844 24.92 -3 26.5 63 -9 15.8
10:10 1014 29.94 844 24.92 -3.1 26.4 65 -8.9 16
10:15 1014 29.94 844 24.92 -3.3 26 66 -8.9 16
10:20 1014 29.94 844 24.92 -3.1 26.4 66 -8.6 16.5
10:25 1014 29.94 844 24.92 -3.1 26.4 66 -8.6 16.5
10:30 1014 29.94 844 24.92 -3.2 26.3 68 -8.3 17.1
10:35 1014 29.94 844 24.92 -2.6 27.4 66 -8.1 17.4
10:40 1014 29.94 844 24.92 -2.5 27.5 63 -8.5 16.6
10:45 1014 29.94 844 24.92 -2.1 28.3 63 -8.2 17.3
10:50 1015 29.97 844 24.92 -1.2 29.8 61 -7.8 18
10:55 1015 29.97 844 24.92 -1 30.2 62 -7.4 18.7
11:00 1015 29.97 844 24.92 -1.5 29.3 65 -7.4 18.8
11:05 1015 29.97 844 24.92 -1.2 29.9 63 -7.3 18.9
11:10 1015 29.97 844 24.92 -1 30.2 64 -6.9 19.5
11:15 1015 29.97 844 24.92 -0.7 30.7 63 -6.9 19.6
11:20 1015 29.97 844 24.92 -0.6 30.9 62 -6.9 19.5
11:25 1015 29.97 844 24.92 -0.4 31.2 61 -7 19.4
11:30 1015 29.97 844 24.92 -0.5 31.1 61 -7.1 19.2
11:35 1015 29.97 844 24.92 -1.2 29.8 64 -7.2 19.1
11:40 1015 29.97 844 24.92 -0.4 31.3 61 -7.1 19.2
11:45 1014 29.94 844 24.92 0.6 33.1 59 -6.6 20.1
11:50 1014 29.94 844 24.92 0.6 33.1 55 -7.4 18.7
11:55 1014 29.94 844 24.92 0.1 32.1 49 -9.4 15
12:00 1014 29.94 843 24.89 -0.5 31.1 53 -8.9 16
12:05 1014 29.94 843 24.89 1 33.8 51 -8.2 17.3
12:10 1014 29.94 843 24.89 1.6 34.8 48 -8.2 17.3
12:15 1014 29.94 843 24.89 1.6 34.8 45 -9.1 15.7
12:20 1014 29.94 843 24.89 1.7 35 42 -9.8 14.3
12:25 1014 29.94 843 24.89 2.1 35.9 43 -9.2 15.4
12:30 1014 29.94 843 24.89 2.5 36.4 40 -9.8 14.3
12:35 1014 29.94 843 24.89 2.1 35.7 38 -10.9 12.4
12:40 1014 29.94 843 24.89 1.1 33.9 39 -11.5 11.3
12:45 1014 29.94 843 24.89 1 33.8 36 -12.6 9.3
12:50 1014 29.94 843 24.89 1.3 34.3 40 -10.8 12.5
12:55 1014 29.94 843 24.89 0.1 32.3 45 -10.5 13.1
13:00 1014 29.94 843 24.89 -0.3 31.5 45 -10.9 12.5
13:05 1014 29.94 843 24.89 -0.7 30.8 47 -10.5 13.1
13:10 1014 29.94 843 24.89 -0.4 31.3 42 -11.9 10.7
13:15 1014 29.94 843 24.89 -0.3 31.5 45 -10.7 12.7
13:20 1014 29.94 843 24.89 -0.1 31.9 40 -12.1 10.3
13:25 1014 29.94 843 24.89 -0.2 31.6 39 -12.6 9.2
13:30 1014 29.94 843 24.89 -0.5 31 41 -12.3 9.8
13:35 1014 29.94 843 24.89 0.1 32.2 39 -12.2 10.1
13:40 1014 29.94 843 24.89 0.3 32.6 34 -13.6 7.5
13:45 1013 29.91 843 24.89 0.4 32.8 35 -13.3 8
13:50 1013 29.91 843 24.89 0.6 33.1 35 -13.2 8.2
13:55 1013 29.91 843 24.89 0.6 33.1 35 -13 8.6
14:00 1013 29.91 842 24.86 1.1 33.9 39 -11.3 11.6
14:05 1013 29.91 842 24.86 1.4 34.5 35 -12.5 9.6
14:10 1013 29.91 843 24.89 0.8 33.4 36 -12.7 9.1
14:15 1013 29.91 843 24.89 1.2 34.1 37 -12 10.3
14:20 1013 29.91 843 24.89 1.6 34.9 33 -13.1 8.3
14:25 1013 29.91 842 24.86 1.7 35.1 31 -13.6 7.6
14:30 1013 29.91 843 24.89 1.7 35.1 32 -13.4 7.9
14:35 1013 29.91 843 24.89 1.4 34.5 34 -12.9 8.7
14:40 1014 29.94 843 24.89 1.1 33.9 35 -12.9 8.8
14:45 1014 29.94 843 24.89 0.7 33.2 35 -13.1 8.4
14:50 1014 29.94 843 24.89 1 33.8 33 -13.6 7.5
14:55 1014 29.94 843 24.89 1.5 34.6 31 -14 6.8
15:00 1014 29.94 843 24.89 1.5 34.6 30 -14.5 5.8
15:05 1014 29.94 843 24.89 1.9 35.3 29 -14.3 6.3
15:10 1014 29.94 843 24.89 1.6 34.9 35 -12.3 9.8
15:15 1014 29.94 843 24.89 1 33.9 43 -10.2 13.7
15:20 1014 29.94 843 24.89 0.7 33.3 40 -11.5 11.3
15:25 1014 29.94 843 24.89 0.8 33.5 38 -11.9 10.5
15:30 1014 29.94 843 24.89 0.9 33.6 40 -11.3 11.6
15:35 1014 29.94 843 24.89 0.6 33 47 -9.4 15
15:40 1014 29.94 843 24.89 0.1 32.1 51 -8.8 16.1
15:45 1014 29.94 843 24.89 -0.4 31.2 54 -8.6 16.6
15:50 1014 29.94 843 24.89 -0.9 30.4 53 -9.3 15.2
15:55 1014 29.94 843 24.89 -0.8 30.5 52 -9.6 14.8
16:00 1014 29.94 843 24.89 -0.6 31 50 -9.8 14.4
16:05 1014 29.94 843 24.89 -0.3 31.4 47 -10.4 13.3
16:10 1014 29.94 843 24.89 -0.1 31.9 46 -10.3 13.4
16:15 1014 29.94 843 24.89 0.2 32.4 45 -10.3 13.4
16:20 1014 29.94 843 24.89 1.2 34.1 42 -10.5 13.1
16:25 1014 29.94 843 24.89 0.8 33.4 41 -11 12.3
16:30 1014 29.94 843 24.89 0.2 32.4 42 -11.1 12
16:35 1014 29.94 843 24.89 0.6 33.1 40 -11.7 11
16:40 1014 29.94 843 24.89 1.1 34 38 -11.8 10.8
16:45 1014 29.94 843 24.89 0.8 33.5 39 -11.7 10.9
16:50 1014 29.94 843 24.89 0.9 33.7 38 -11.8 10.7
16:55 1014 29.94 843 24.89 0.8 33.4 39 -11.7 10.9
17:00 1014 29.94 843 24.89 0.8 33.4 37 -12.3 9.9
17:05 1014 29.94 843 24.89 1 33.8 35 -12.7 9.1
17:10 1014 29.94 843 24.89 1.3 34.4 33 -13.2 8.2
17:15 1014 29.94 843 24.89 1.7 35.1 35 -12 10.3
17:20 1014 29.94 843 24.89 1.2 34.1 36 -12.4 9.6
17:25 1014 29.94 843 24.89 0.7 33.3 35 -13.1 8.4
17:30 1014 29.94 843 24.89 0.9 33.5 37 -12.2 10
17:35 1014 29.94 843 24.89 0.5 32.9 39 -11.9 10.5
17:40 1014 29.94 843 24.89 0.3 32.6 42 -11 12.1
17:45 1014 29.94 843 24.89 0.7 33.3 40 -11.4 11.4
17:50 1014 29.94 843 24.89 0.5 33 40 -11.6 11.2
17:55 1014 29.94 843 24.89 0.4 32.8 40 -11.8 10.8
18:00 1014 29.94 843 24.89 0.6 33.1 38 -12 10.3
18:05 1014 29.94 843 24.89 1 33.9 37 -12.1 10.2
18:10 1014 29.94 843 24.89 1.2 34.1 36 -12.4 9.6
18:15 1014 29.94 843 24.89 1.3 34.3 33 -13.2 8.2
18:20 1014 29.94 843 24.89 1 33.8 34 -13.2 8.2
18:25 1014 29.94 843 24.89 1 33.8 35 -12.9 8.8
18:30 1014 29.94 843 24.89 1 33.8 37 -12.1 10.2
18:35 1014 29.94 843 24.89 0.9 33.6 38 -12 10.3
18:40 1014 29.94 843 24.89 0.8 33.4 38 -12 10.4
18:45 1014 29.94 843 24.89 0.2 32.4 46 -10.2 13.7
18:50 1014 29.94 843 24.89 -0.6 30.9 52 -9.3 15.3
18:55 1014 29.94 843 24.89 -1 30.3 57 -8.5 16.6
19:00 1014 29.94 843 24.89 -1.4 29.5 66 -6.9 19.6
19:05 1014 29.94 843 24.89 -2 28.4 73 -6.3 20.7
19:10 1014 29.94 843 24.89 -2.2 28.1 73 -6.4 20.6
19:15 1014 29.94 843 24.89 -2.1 28.3 72 -6.4 20.5
19:20 1014 29.94 843 24.89 -1.9 28.6 72 -6.2 20.8
19:25 1014 29.94 843 24.89 -1.7 29 71 -6.2 20.8
19:30 1014 29.94 843 24.89 -1.5 29.4 69 -6.4 20.5
19:35 1014 29.94 843 24.89 -1.4 29.6 67 -6.7 20
19:40 1014 29.94 843 24.89 -1.3 29.7 67 -6.6 20
19:45 1014 29.94 843 24.89 -1.1 29.9 66 -6.8 19.8
19:50 1014 29.94 843 24.89 -1 30.2 63 -7.3 18.9
19:55 1014 29.94 843 24.89 -0.8 30.6 56 -8.4 16.9
20:00 1014 29.94 843 24.89 -0.7 30.8 56 -8.3 17
20:05 1014 29.94 843 24.89 -0.9 30.5 56 -8.7 16.4
20:10 1014 29.94 843 24.89 -0.9 30.4 56 -8.5 16.7
20:15 1014 29.94 843 24.89 -0.9 30.4 57 -8.4 16.9
20:20 1014 29.94 843 24.89 -0.9 30.4 57 -8.5 16.7
20:25 1014 29.94 843 24.89 -0.9 30.4 55 -8.7 16.3
20:30 1014 29.94 843 24.89 -0.8 30.6 57 -8.3 17
20:35 1014 29.94 844 24.92 -0.9 30.4 59 -8 17.7
20:40 1014 29.94 844 24.92 -1 30.3 59 -7.9 17.7
20:45 1014 29.94 844 24.92 -0.8 30.5 57 -8.2 17.3
20:50 1015 29.97 844 24.92 -0.6 30.9 54 -8.7 16.3
20:55 1015 29.97 844 24.92 -0.5 31.1 53 -8.9 16
21:00 1015 29.97 844 24.92 -0.6 30.9 55 -8.7 16.4
21:05 1015 29.97 844 24.92 -0.8 30.5 56 -8.5 16.8
21:10 1015 29.97 844 24.92 -1 30.3 59 -8.1 17.4
21:15 1015 29.97 844 24.92 -1 30.2 59 -7.9 17.7
21:20 1015 29.97 844 24.92 -1 30.2 57 -8.5 16.8
21:25 1015 29.97 844 24.92 -1 30.1 59 -8 17.6
21:30 1015 29.97 844 24.92 -1.1 30.1 58 -8.4 16.9
21:35 1015 29.97 844 24.92 -0.9 30.4 55 -8.9 16
21:40 1015 29.97 844 24.92 -0.7 30.8 55 -8.7 16.4
21:45 1015 29.97 844 24.92 -0.7 30.8 55 -8.7 16.4
21:50 1015 29.97 844 24.92 -0.7 30.7 55 -8.6 16.5
21:55 1015 29.97 844 24.92 -0.8 30.6 56 -8.4 16.8
22:00 1015 29.97 844 24.92 -1 30.3 58 -8.3 17.1
22:05 1015 29.97 844 24.92 -1.1 30.1 58 -8.3 17.1
22:10 1015 29.97 844 24.92 -1.1 30.1 59 -8.2 17.3
22:15 1015 29.97 844 24.92 -1 30.3 57 -8.4 17
22:20 1015 29.97 844 24.92 -0.8 30.5 57 -8.4 16.9
22:25 1015 29.97 844 24.92 -0.8 30.6 56 -8.4 16.9
22:30 1015 29.97 844 24.92 -0.9 30.4 55 -8.8 16.2
22:35 1015 29.97 844 24.92 -0.9 30.4 55 -8.9 16.1
22:40 1015 29.97 844 24.92 -0.9 30.3 55 -9 15.9
22:45 1015 29.97 844 24.92 -1 30.3 56 -8.7 16.3
22:50 1015 29.97 844 24.92 -1.1 30 56 -8.9 15.9
22:55 1015 29.97 844 24.92 -1.3 29.6 56 -9 15.8
23:00 1015 29.97 844 24.92 -1.5 29.4 56 -9.1 15.7
23:05 1015 29.97 844 24.92 -1.6 29.2 57 -9.1 15.6
23:10 1015 29.97 844 24.92 -1.6 29.1 57 -9.1 15.6
23:15 1015 29.97 844 24.92 -1.7 29 57 -9.1 15.5
23:20 1015 29.97 844 24.92 -1.7 28.9 57 -9.2 15.5
23:25 1015 29.97 844 24.92 -1.9 28.6 57 -9.2 15.4
23:30 1015 29.97 844 24.92 -1.9 28.6 58 -9.2 15.4
23:35 1015 29.97 844 24.92 -2 28.5 58 -9.2 15.5
23:40 1015 29.97 844 24.92 -2 28.3 58 -9.2 15.5
23:45 1015 29.97 844 24.92 -2.1 28.2 59 -9.2 15.5
23:50 1015 29.97 844 24.92 -2.2 28.1 59 -9.2 15.5
23:55 1015 29.97 844 24.92 -2.2 28 59 -9.1 15.5
24:00 1015 29.97 844 24.92 -2.3 27.8 61 -9 15.9